createdAt,value
2023-02-19T00:00:25.134Z,6.80
2023-02-19T00:02:53.681Z,6.80
2023-02-19T00:05:23.529Z,6.80
2023-02-19T00:07:52.029Z,6.90
2023-02-19T00:10:20.536Z,6.80
2023-02-19T00:12:49.012Z,6.90
2023-02-19T00:15:17.717Z,6.90
2023-02-19T00:17:46.139Z,6.90
2023-02-19T00:20:15.347Z,7.00
2023-02-19T00:22:45.135Z,7.00
2023-02-19T00:25:13.574Z,6.90
2023-02-19T00:27:42.018Z,7.00
2023-02-19T00:30:12.130Z,7.00
2023-02-19T00:32:40.715Z,7.10
2023-02-19T00:35:09.409Z,7.20
2023-02-19T00:37:50.480Z,7.20
2023-02-19T00:40:19.249Z,7.30
2023-02-19T00:42:47.707Z,7.40
2023-02-19T00:45:16.276Z,7.50
2023-02-19T00:47:45.711Z,7.50
2023-02-19T00:50:14.237Z,7.60
2023-02-19T00:52:42.694Z,7.60
2023-02-19T00:55:12.619Z,7.60
2023-02-19T00:57:41.090Z,7.60
2023-02-19T01:00:11.742Z,7.70
2023-02-19T01:02:40.291Z,7.70
2023-02-19T01:05:09.272Z,7.70
2023-02-19T01:07:38.305Z,7.70
2023-02-19T01:10:07.923Z,7.70
2023-02-19T01:12:37.815Z,7.70
2023-02-19T01:15:06.866Z,7.70
2023-02-19T01:17:52.503Z,7.70
2023-02-19T01:20:21.112Z,7.80
2023-02-19T01:22:49.536Z,7.80
2023-02-19T01:25:18.239Z,7.90
2023-02-19T01:27:48.393Z,7.90
2023-02-19T01:30:41.822Z,7.90
2023-02-19T01:33:11.045Z,7.90
2023-02-19T01:35:41.219Z,7.90
2023-02-19T01:38:09.692Z,8.00
2023-02-19T01:40:38.183Z,8.10
2023-02-19T01:43:17.245Z,8.10
2023-02-19T01:45:46.647Z,8.20
2023-02-19T01:48:20.866Z,8.20
2023-02-19T01:50:55.097Z,8.20
2023-02-19T01:53:29.864Z,8.20
2023-02-19T01:56:02.006Z,8.10
2023-02-19T01:58:36.393Z,8.00
2023-02-19T02:01:09.041Z,7.80
2023-02-19T02:03:41.611Z,7.70
2023-02-19T02:06:17.036Z,7.60
2023-02-19T02:09:03.077Z,7.50
2023-02-19T02:11:31.909Z,7.40
2023-02-19T02:14:02.174Z,7.40
2023-02-19T02:16:46.265Z,7.50
2023-02-19T02:19:33.905Z,7.40
2023-02-19T02:22:12.521Z,7.40
2023-02-19T02:25:32.217Z,7.30
2023-02-19T02:28:23.102Z,7.30
2023-02-19T02:30:57.608Z,7.20
2023-02-19T02:33:35.184Z,7.20
2023-02-19T02:36:11.591Z,7.20
2023-02-19T02:38:45.810Z,7.20
2023-02-19T02:41:16.312Z,7.10
2023-02-19T02:43:44.760Z,7.00
2023-02-19T02:46:21.082Z,7.00
2023-02-19T02:48:55.489Z,7.00
2023-02-19T02:51:31.002Z,7.00
2023-02-19T02:57:14.837Z,7.10
2023-02-19T02:59:45.244Z,7.00
2023-02-19T03:02:20.009Z,6.90
2023-02-19T03:05:14.610Z,6.90
2023-02-19T03:08:11.455Z,6.90
2023-02-19T03:10:45.947Z,6.90
2023-02-19T03:13:58.218Z,6.80
2023-02-19T03:16:50.405Z,6.80
2023-02-19T03:19:21.914Z,6.70
2023-02-19T03:21:58.078Z,6.70
2023-02-19T03:25:24.066Z,6.60
2023-02-19T03:27:55.458Z,6.50
2023-02-19T03:30:31.054Z,6.40
2023-02-19T03:33:08.332Z,6.40
2023-02-19T03:35:42.970Z,6.30
2023-02-19T03:38:18.921Z,6.30
2023-02-19T03:40:58.303Z,6.30
2023-02-19T03:43:35.981Z,6.30
2023-02-19T03:46:12.913Z,6.20
2023-02-19T03:48:51.185Z,6.10
2023-02-19T03:51:35.374Z,6.10
2023-02-19T03:54:36.470Z,6.00
2023-02-19T03:57:11.092Z,5.80
2023-02-19T03:59:48.548Z,5.70
2023-02-19T04:02:27.444Z,5.70
2023-02-19T04:05:05.999Z,5.60
2023-02-19T04:07:43.043Z,5.50
2023-02-19T04:10:12.574Z,5.50
2023-02-19T04:12:55.175Z,5.50
2023-02-19T04:15:29.435Z,5.40
2023-02-19T04:18:04.026Z,5.40
2023-02-19T04:20:39.568Z,5.40
2023-02-19T04:23:10.135Z,5.40
2023-02-19T04:25:44.461Z,5.40
2023-02-19T04:28:40.631Z,5.40
2023-02-19T04:31:09.647Z,5.30
2023-02-19T04:33:38.658Z,5.40
2023-02-19T04:36:10.742Z,5.40
2023-02-19T04:38:40.690Z,5.30
2023-02-19T04:41:10.625Z,5.30
2023-02-19T04:43:39.222Z,5.30
2023-02-19T04:46:07.718Z,5.30
2023-02-19T04:48:36.197Z,5.30
2023-02-19T04:51:07.676Z,5.30
2023-02-19T04:53:36.975Z,5.30
2023-02-19T04:56:12.775Z,5.20
2023-02-19T04:58:42.241Z,5.20
2023-02-19T05:01:11.844Z,5.20
2023-02-19T05:04:06.304Z,5.20
2023-02-19T05:06:44.363Z,5.20
2023-02-19T05:09:12.872Z,5.10
2023-02-19T05:11:42.819Z,5.20
2023-02-19T05:14:11.341Z,5.20
2023-02-19T05:17:05.035Z,5.30
2023-02-19T05:19:58.751Z,5.20
2023-02-19T05:22:27.443Z,5.20
2023-02-19T05:24:55.924Z,5.20
2023-02-19T05:27:25.833Z,5.20
2023-02-19T05:29:57.255Z,5.30
2023-02-19T05:32:25.788Z,5.30
2023-02-19T05:34:54.211Z,5.30
2023-02-19T05:37:22.668Z,5.30
2023-02-19T05:39:51.152Z,5.30
2023-02-19T05:42:20.764Z,5.40
2023-02-19T05:44:50.572Z,5.50
2023-02-19T05:47:19.049Z,5.60
2023-02-19T05:49:47.480Z,5.70
2023-02-19T05:52:38.806Z,5.80
2023-02-19T05:55:07.995Z,5.80
2023-02-19T05:57:43.648Z,6.00
2023-02-19T06:00:16.806Z,6.20
2023-02-19T06:02:45.976Z,6.40
2023-02-19T06:05:15.316Z,6.70
2023-02-19T06:07:44.008Z,6.90
2023-02-19T06:10:13.734Z,7.10
2023-02-19T06:12:42.242Z,7.40
2023-02-19T06:15:10.999Z,7.60
2023-02-19T06:17:40.910Z,7.80
2023-02-19T06:20:34.800Z,8.00
2023-02-19T06:23:03.261Z,8.20
2023-02-19T06:25:50.059Z,8.30
2023-02-19T06:28:18.502Z,8.50
2023-02-19T06:30:47.086Z,8.50
2023-02-19T06:33:16.911Z,8.50
2023-02-19T06:35:45.357Z,8.60
2023-02-19T06:38:13.812Z,8.80
2023-02-19T06:40:42.285Z,9.00
2023-02-19T06:43:10.749Z,9.20
2023-02-19T06:45:39.212Z,9.50
2023-02-19T06:48:07.693Z,9.80
2023-02-19T06:50:37.533Z,10.00
2023-02-19T06:53:06.271Z,10.20
2023-02-19T06:55:34.809Z,10.40
2023-02-19T06:58:03.298Z,10.50
2023-02-19T07:00:31.746Z,10.70
2023-02-19T07:03:00.224Z,10.90
2023-02-19T07:05:43.927Z,11.30
2023-02-19T07:08:12.495Z,11.60
2023-02-19T07:10:40.965Z,12.00
2023-02-19T07:13:09.468Z,12.40
2023-02-19T07:16:08.881Z,12.80
2023-02-19T07:18:37.761Z,13.20
2023-02-19T07:21:11.050Z,13.60
2023-02-19T07:23:39.876Z,13.90
2023-02-19T07:26:12.333Z,14.20
2023-02-19T07:28:42.439Z,14.50
2023-02-19T07:31:11.445Z,15.00
2023-02-19T07:33:40.277Z,15.30
2023-02-19T07:36:11.319Z,15.70
2023-02-19T07:38:40.059Z,16.00
2023-02-19T07:41:09.638Z,16.30
2023-02-19T07:43:40.027Z,16.60
2023-02-19T07:46:11.977Z,16.90
2023-02-19T07:48:43.180Z,17.10
2023-02-19T07:51:18.833Z,17.30
2023-02-19T07:53:48.247Z,17.50
2023-02-19T07:56:16.843Z,17.70
2023-02-19T07:58:46.238Z,17.80
2023-02-19T08:01:18.548Z,17.90
2023-02-19T08:03:48.216Z,18.00
2023-02-19T08:06:19.263Z,18.00
2023-02-19T08:08:47.708Z,18.00
2023-02-19T08:11:33.474Z,17.90
2023-02-19T08:14:18.537Z,17.70
2023-02-19T08:16:51.624Z,17.50
2023-02-19T08:19:20.450Z,17.40
2023-02-19T08:21:50.638Z,17.30
2023-02-19T08:24:19.106Z,17.20
2023-02-19T08:26:47.610Z,17.00
2023-02-19T08:29:16.067Z,16.80
2023-02-19T08:31:44.799Z,16.70
2023-02-19T08:34:13.356Z,16.70
2023-02-19T08:36:42.682Z,16.80
2023-02-19T08:39:12.548Z,16.90
2023-02-19T08:42:06.494Z,16.90
2023-02-19T08:44:47.028Z,16.90
2023-02-19T08:47:15.546Z,16.80
2023-02-19T08:49:43.991Z,16.90
2023-02-19T08:52:12.518Z,16.90
2023-02-19T08:54:42.469Z,16.90
2023-02-19T08:57:10.964Z,16.90
2023-02-19T08:59:39.396Z,17.10
2023-02-19T09:02:32.554Z,17.10
2023-02-19T09:05:01.054Z,17.20
2023-02-19T09:07:29.620Z,17.20
2023-02-19T09:09:59.879Z,17.20
2023-02-19T09:12:28.524Z,17.20
2023-02-19T09:14:56.987Z,17.10
2023-02-19T09:17:25.454Z,17.10
2023-02-19T09:19:53.998Z,17.20
2023-02-19T09:22:22.429Z,17.10
2023-02-19T09:24:50.976Z,17.10
2023-02-19T09:27:22.086Z,17.20
2023-02-19T09:30:25.645Z,17.40
2023-02-19T09:33:20.898Z,17.80
2023-02-19T09:35:49.413Z,18.20
2023-02-19T09:38:17.900Z,18.30
2023-02-19T09:40:46.782Z,18.30
2023-02-19T09:43:24.351Z,18.30
2023-02-19T09:46:03.578Z,18.50
2023-02-19T09:48:33.153Z,18.40
2023-02-19T09:51:03.307Z,18.20
2023-02-19T09:54:08.443Z,18.30
2023-02-19T09:56:37.034Z,18.30
2023-02-19T09:59:22.120Z,18.00
2023-02-19T10:01:59.088Z,18.00
2023-02-19T10:04:28.431Z,18.10
2023-02-19T10:07:03.766Z,18.00
2023-02-19T10:09:32.882Z,17.90
2023-02-19T10:12:02.223Z,17.40
2023-02-19T10:14:40.560Z,17.30
2023-02-19T10:17:17.141Z,17.30
2023-02-19T10:19:45.780Z,17.20
2023-02-19T10:22:15.074Z,17.10
2023-02-19T10:24:45.727Z,17.20
2023-02-19T10:27:15.790Z,17.20
2023-02-19T10:29:48.884Z,17.30
2023-02-19T10:32:29.606Z,17.40
2023-02-19T10:35:14.455Z,17.40
2023-02-19T10:37:49.026Z,17.40
2023-02-19T10:40:20.689Z,17.50
2023-02-19T10:42:51.844Z,17.50
2023-02-19T10:45:26.862Z,17.40
2023-02-19T10:47:55.374Z,17.40
2023-02-19T10:50:56.087Z,17.50
2023-02-19T10:53:46.396Z,17.50
2023-02-19T10:56:23.430Z,17.60
2023-02-19T10:58:52.816Z,17.60
2023-02-19T11:01:25.801Z,17.60
2023-02-19T11:04:16.502Z,17.60
2023-02-19T11:06:46.699Z,17.60
2023-02-19T11:09:29.820Z,17.70
2023-02-19T11:11:59.813Z,17.70
2023-02-19T11:14:31.499Z,17.70
2023-02-19T11:17:04.917Z,17.70
2023-02-19T11:19:39.175Z,17.70
2023-02-19T11:22:29.280Z,17.70
2023-02-19T11:25:03.565Z,17.80
2023-02-19T11:27:33.468Z,17.90
2023-02-19T11:30:36.995Z,18.00
2023-02-19T11:33:32.400Z,17.90
2023-02-19T11:36:28.775Z,17.90
2023-02-19T11:39:01.196Z,17.90
2023-02-19T11:42:24.584Z,18.00
2023-02-19T11:45:27.658Z,18.10
2023-02-19T11:48:24.828Z,18.30
2023-02-19T11:51:52.334Z,18.40
2023-02-19T11:54:51.031Z,18.40
2023-02-19T11:57:48.530Z,18.50
2023-02-19T12:00:26.172Z,18.50
2023-02-19T12:03:35.506Z,18.50
2023-02-19T12:06:24.425Z,18.50
2023-02-19T12:09:17.703Z,18.60
2023-02-19T12:12:07.805Z,18.60
2023-02-19T12:15:22.501Z,18.50
2023-02-19T12:18:44.855Z,18.50
2023-02-19T12:21:30.054Z,18.50
2023-02-19T12:24:46.983Z,18.60
2023-02-19T12:27:38.380Z,18.50
2023-02-19T12:31:00.700Z,18.60
2023-02-19T12:34:16.912Z,18.70
2023-02-19T12:37:03.015Z,18.60
2023-02-19T12:39:48.876Z,18.50
2023-02-19T12:42:39.452Z,18.40
2023-02-19T12:45:19.022Z,18.40
2023-02-19T12:48:00.695Z,18.40
2023-02-19T12:50:31.633Z,18.40
2023-02-19T12:53:09.191Z,18.50
2023-02-19T12:55:44.301Z,18.60
2023-02-19T12:58:29.558Z,18.50
2023-02-19T13:01:00.146Z,18.50
2023-02-19T13:03:35.876Z,18.50
2023-02-19T13:06:16.584Z,18.60
2023-02-19T13:09:06.258Z,18.60
2023-02-19T13:11:42.969Z,18.70
2023-02-19T13:14:26.047Z,18.70
2023-02-19T13:17:05.003Z,18.70
2023-02-19T13:19:34.881Z,18.80
2023-02-19T13:22:37.550Z,18.80
2023-02-19T13:25:11.305Z,18.80
2023-02-19T13:28:20.040Z,19.00
2023-02-19T13:31:20.558Z,18.90
2023-02-19T13:34:06.854Z,18.90
2023-02-19T13:36:37.979Z,19.00
2023-02-19T13:39:35.401Z,18.90
2023-02-19T13:42:06.032Z,18.80
2023-02-19T13:44:36.551Z,18.70
2023-02-19T13:47:06.920Z,18.70
2023-02-19T13:49:49.693Z,18.80
2023-02-19T13:52:41.097Z,18.80
2023-02-19T13:55:55.060Z,18.70
2023-02-19T13:58:57.632Z,18.70
2023-02-19T14:02:30.691Z,18.60
2023-02-19T14:05:02.376Z,18.50
2023-02-19T14:08:04.113Z,18.40
2023-02-19T14:11:03.350Z,18.30
2023-02-19T14:13:59.416Z,18.20
2023-02-19T14:16:55.797Z,18.10
2023-02-19T14:19:50.423Z,18.10
2023-02-19T14:23:16.494Z,18.00
2023-02-19T14:26:05.065Z,18.00
2023-02-19T14:28:38.219Z,18.00
2023-02-19T14:31:37.569Z,18.00
2023-02-19T14:34:15.108Z,18.00
2023-02-19T14:36:50.136Z,18.10
2023-02-19T14:39:23.195Z,18.20
2023-02-19T14:41:55.603Z,18.20
2023-02-19T14:44:28.271Z,18.10
2023-02-19T14:47:05.334Z,18.10
2023-02-19T14:49:43.408Z,18.10
2023-02-19T14:52:20.557Z,18.10
2023-02-19T14:54:54.983Z,18.10
2023-02-19T14:57:28.732Z,18.00
2023-02-19T15:00:00.722Z,18.00
2023-02-19T15:02:33.473Z,17.90
2023-02-19T15:05:01.945Z,17.80
2023-02-19T15:07:34.855Z,17.70
2023-02-19T15:10:06.710Z,17.50
2023-02-19T15:12:43.572Z,17.40
2023-02-19T15:15:22.150Z,17.30
2023-02-19T15:17:54.077Z,17.00
2023-02-19T15:20:27.859Z,16.90
2023-02-19T15:22:59.572Z,16.70
2023-02-19T15:25:34.032Z,16.60
2023-02-19T15:28:21.105Z,16.40
2023-02-19T15:30:49.556Z,16.30
2023-02-19T15:33:22.226Z,16.20
2023-02-19T15:35:52.801Z,16.10
2023-02-19T15:38:21.681Z,16.00
2023-02-19T15:40:51.362Z,15.80
2023-02-19T15:43:26.918Z,15.70
2023-02-19T15:46:01.837Z,15.50
2023-02-19T15:48:40.788Z,15.40
2023-02-19T15:51:17.136Z,15.30
2023-02-19T15:53:51.521Z,15.20
2023-02-19T15:56:28.395Z,15.10
2023-02-19T15:59:02.287Z,15.10
2023-02-19T16:01:34.311Z,15.00
2023-02-19T16:04:05.191Z,14.90
2023-02-19T16:06:54.528Z,14.80
2023-02-19T16:09:28.801Z,14.70
2023-02-19T16:12:22.979Z,14.60
2023-02-19T16:14:52.444Z,14.50
2023-02-19T16:17:28.006Z,14.40
2023-02-19T16:20:01.088Z,14.40
2023-02-19T16:22:33.335Z,14.30
2023-02-19T16:25:05.887Z,14.20
2023-02-19T16:27:38.551Z,14.20
2023-02-19T16:30:28.112Z,14.10
2023-02-19T16:33:23.542Z,13.90
2023-02-19T16:35:53.383Z,13.80
2023-02-19T16:38:22.756Z,13.70
2023-02-19T16:41:12.802Z,13.60
2023-02-19T16:43:44.648Z,13.50
2023-02-19T16:46:14.680Z,13.50
2023-02-19T16:48:43.346Z,13.40
2023-02-19T16:51:23.082Z,13.40
2023-02-19T16:53:51.617Z,13.20
2023-02-19T16:56:23.186Z,13.20
2023-02-19T16:58:51.973Z,13.20
2023-02-19T17:01:20.461Z,13.10
2023-02-19T17:03:49.557Z,13.10
2023-02-19T17:06:19.487Z,13.10
2023-02-19T17:08:47.951Z,13.20
2023-02-19T17:11:19.384Z,13.30
2023-02-19T17:13:48.691Z,13.30
2023-02-19T17:16:21.431Z,13.30
2023-02-19T17:18:50.163Z,13.20
2023-02-19T17:21:24.033Z,13.20
2023-02-19T17:23:53.981Z,13.30
2023-02-19T17:26:26.231Z,13.30
2023-02-19T17:28:55.004Z,13.30
2023-02-19T17:31:23.694Z,13.30
2023-02-19T17:33:52.557Z,13.30
2023-02-19T17:36:26.910Z,13.30
2023-02-19T17:38:55.811Z,13.20
2023-02-19T17:41:24.270Z,13.10
2023-02-19T17:43:52.688Z,13.00
2023-02-19T17:46:24.533Z,12.90
2023-02-19T17:48:54.051Z,12.90
2023-02-19T17:51:24.279Z,12.80
2023-02-19T17:53:52.745Z,12.70
2023-02-19T17:56:25.498Z,12.70
2023-02-19T17:58:54.295Z,12.60
2023-02-19T18:01:23.531Z,12.50
2023-02-19T18:03:52.928Z,12.50
2023-02-19T18:06:21.663Z,12.50
2023-02-19T18:08:54.066Z,12.40
2023-02-19T18:11:23.882Z,12.30
2023-02-19T18:13:53.765Z,12.30
2023-02-19T18:16:22.672Z,12.20
2023-02-19T18:18:51.180Z,12.20
2023-02-19T18:21:19.696Z,12.20
2023-02-19T18:23:48.510Z,12.20
2023-02-19T18:26:22.497Z,12.20
2023-02-19T18:28:50.977Z,12.20
2023-02-19T18:31:19.575Z,12.10
2023-02-19T18:34:18.442Z,12.10
2023-02-19T18:37:15.966Z,11.90
2023-02-19T18:39:45.030Z,11.90
2023-02-19T18:42:15.857Z,11.90
2023-02-19T18:45:00.311Z,11.80
2023-02-19T18:47:29.202Z,11.70
2023-02-19T18:49:59.566Z,11.60
2023-02-19T18:52:29.136Z,11.50
2023-02-19T18:54:58.412Z,11.40
2023-02-19T18:57:28.657Z,11.20
2023-02-19T18:59:57.102Z,11.20
2023-02-19T19:02:25.741Z,11.20
2023-02-19T19:04:56.109Z,11.10
2023-02-19T19:07:24.657Z,10.90
2023-02-19T19:09:53.378Z,10.80
2023-02-19T19:12:21.915Z,10.70
2023-02-19T19:14:51.695Z,10.70
2023-02-19T19:17:20.172Z,10.70
2023-02-19T19:19:48.707Z,10.60
2023-02-19T19:22:22.663Z,10.60
2023-02-19T19:25:16.421Z,10.60
2023-02-19T19:28:06.932Z,10.50
2023-02-19T19:30:36.863Z,10.40
2023-02-19T19:33:05.428Z,10.40
2023-02-19T19:35:33.978Z,10.40
2023-02-19T19:38:07.450Z,10.40
2023-02-19T19:40:35.937Z,10.30
2023-02-19T19:46:31.027Z,10.30
2023-02-19T19:48:59.524Z,10.30
2023-02-19T19:51:33.296Z,10.30
2023-02-19T19:54:03.171Z,10.40
2023-02-19T19:56:31.988Z,10.40
2023-02-19T19:59:36.985Z,10.40
2023-02-19T20:02:08.739Z,10.40
2023-02-19T20:04:37.163Z,10.30
2023-02-19T20:07:06.369Z,10.40
2023-02-19T20:09:35.068Z,10.40
2023-02-19T20:12:06.575Z,10.40
2023-02-19T20:14:35.071Z,10.40
2023-02-19T20:17:03.826Z,10.40
2023-02-19T20:19:33.724Z,10.40
2023-02-19T20:22:17.340Z,10.50
2023-02-19T20:24:45.908Z,10.50
2023-02-19T20:27:42.036Z,10.50
2023-02-19T20:30:14.527Z,10.50
2023-02-19T20:32:43.145Z,10.50
2023-02-19T20:35:13.102Z,10.50
2023-02-19T20:37:42.156Z,10.40
2023-02-19T20:40:13.514Z,10.40
2023-02-19T20:42:41.976Z,10.40
2023-02-19T20:45:11.172Z,10.30
2023-02-19T20:47:41.019Z,10.30
2023-02-19T20:50:10.485Z,10.20
2023-02-19T20:52:40.314Z,10.20
2023-02-19T20:55:10.688Z,10.20
2023-02-19T20:58:29.007Z,10.20
2023-02-19T21:00:57.464Z,10.30
2023-02-19T21:03:26.012Z,10.30
2023-02-19T21:05:54.453Z,10.40
2023-02-19T21:08:24.431Z,10.40
2023-02-19T21:10:52.883Z,10.40
2023-02-19T21:13:21.324Z,10.40
2023-02-19T21:15:49.866Z,10.40
2023-02-19T21:18:20.003Z,10.50
2023-02-19T21:20:48.457Z,10.40
2023-02-19T21:23:17.075Z,10.50
2023-02-19T21:25:46.860Z,10.50
2023-02-19T21:28:15.842Z,10.50
2023-02-19T21:30:44.301Z,10.50
2023-02-19T21:33:12.822Z,10.50
2023-02-19T21:35:41.241Z,10.50
2023-02-19T21:38:09.939Z,10.50
2023-02-19T21:40:38.492Z,10.50
2023-02-19T21:43:08.278Z,10.50
2023-02-19T21:45:36.838Z,10.50
2023-02-19T21:48:05.840Z,10.50
2023-02-19T21:50:34.342Z,10.40
2023-02-19T21:53:02.891Z,10.40
2023-02-19T21:55:31.588Z,10.30
2023-02-19T21:58:00.282Z,10.20
2023-02-19T22:00:31.369Z,10.10
2023-02-19T22:03:00.036Z,10.20
2023-02-19T22:05:28.618Z,10.20
2023-02-19T22:07:58.339Z,10.20
2023-02-19T22:10:26.803Z,10.20
2023-02-19T22:13:46.084Z,10.20
2023-02-19T22:16:16.569Z,10.20
2023-02-19T22:18:49.051Z,10.10
2023-02-19T22:21:18.880Z,10.10
2023-02-19T22:23:48.420Z,10.00
2023-02-19T22:26:22.240Z,10.00
2023-02-19T22:28:50.697Z,10.00
2023-02-19T22:31:24.348Z,9.90
2023-02-19T22:33:53.497Z,9.90
2023-02-19T22:36:24.968Z,9.90
2023-02-19T22:38:54.084Z,10.00
2023-02-19T22:41:24.010Z,10.00
2023-02-19T22:43:55.739Z,10.10
2023-02-19T22:46:28.537Z,10.10
2023-02-19T22:48:57.354Z,10.10
2023-02-19T22:51:27.839Z,10.20
2023-02-19T22:53:58.703Z,10.20
2023-02-19T22:56:29.410Z,10.20
2023-02-19T22:58:59.139Z,10.20
2023-02-19T23:01:29.176Z,10.20
2023-02-19T23:04:01.131Z,10.20
2023-02-19T23:06:32.749Z,10.20
2023-02-19T23:09:06.457Z,10.10
2023-02-19T23:11:39.452Z,10.10
2023-02-19T23:14:08.934Z,10.00
2023-02-19T23:16:39.020Z,10.00
2023-02-19T23:19:11.492Z,10.00
2023-02-19T23:21:41.923Z,10.00
2023-02-19T23:24:11.181Z,10.00
2023-02-19T23:26:44.463Z,10.00
2023-02-19T23:29:18.632Z,10.10
2023-02-19T23:31:48.912Z,10.10
2023-02-19T23:34:17.923Z,10.10
2023-02-19T23:36:49.545Z,10.10
2023-02-19T23:39:21.815Z,10.10
2023-02-19T23:41:52.629Z,10.00
2023-02-19T23:44:23.368Z,10.00
2023-02-19T23:46:53.679Z,10.00
2023-02-19T23:49:22.134Z,9.90
2023-02-19T23:51:51.422Z,9.80
2023-02-19T23:54:20.024Z,9.80
2023-02-19T23:56:48.522Z,9.80
2023-02-19T23:59:17.149Z,9.70
